ANA812 VHHH-RJAA
Flight info
| Callsign | ANA812 |
|---|---|
| Flight time | 3h 22m |
| Altitude | 37000 |
| Route | DALOL V631 ENVAR M750 MUKEP Y891 AGIMO Y89 GUPER Y81 RUTAS |
| Aircraft | B77W/H-SDE1E2E3FGHIJ2J3J4J5M1RWXY/LB1D1 |
Departure
| Time | 2026-05-05 11:12 |
|---|---|
| Airport | Hong Kong International Airport (VHHH) |
Arrival
| Time | 2026-05-05 14:35 |
|---|---|
| Airport | Narita International Airport (RJAA) |
| Time | Latitude | Longitude | Altitude | Speed | Heading |
|---|---|---|---|---|---|
| 2026-05-05 10:45 | 22.31510 | 113.92483 | 40 ft | 0 kts | 206° |
| 2026-05-05 10:59 | 22.31521 | 113.92488 | 40 ft | 2 kts | 206° |
| 2026-05-05 10:59 | 22.31534 | 113.92495 | 40 ft | 2 kts | 206° |
| 2026-05-05 10:59 | 22.31548 | 113.92503 | 40 ft | 2 kts | 206° |
| 2026-05-05 10:59 | 22.31562 | 113.92509 | 40 ft | 2 kts | 207° |
| 2026-05-05 11:00 | 22.31572 | 113.92517 | 40 ft | 1 kts | 225° |
| 2026-05-05 11:00 | 22.31580 | 113.92527 | 40 ft | 1 kts | 243° |
| 2026-05-05 11:00 | 22.31584 | 113.92539 | 40 ft | 1 kts | 261° |
| 2026-05-05 11:00 | 22.31585 | 113.92552 | 40 ft | 1 kts | 279° |
| 2026-05-05 11:01 | 22.31582 | 113.92564 | 40 ft | 0 kts | 295° |
| 2026-05-05 11:01 | 22.31579 | 113.92570 | 40 ft | 1 kts | 296° |
| 2026-05-05 11:01 | 22.31579 | 113.92571 | 40 ft | 0 kts | 296° |
| 2026-05-05 11:03 | 22.31589 | 113.92548 | 40 ft | 6 kts | 294° |
| 2026-05-05 11:03 | 22.31617 | 113.92481 | 39 ft | 12 kts | 294° |
| 2026-05-05 11:03 | 22.31640 | 113.92374 | 37 ft | 16 kts | 259° |
| 2026-05-05 11:03 | 22.31599 | 113.92236 | 36 ft | 20 kts | 251° |
| 2026-05-05 11:04 | 22.31548 | 113.92078 | 36 ft | 23 kts | 251° |
| 2026-05-05 11:04 | 22.31496 | 113.91911 | 35 ft | 19 kts | 249° |
| 2026-05-05 11:04 | 22.31416 | 113.91900 | 36 ft | 13 kts | 162° |
| 2026-05-05 11:04 | 22.31315 | 113.91935 | 37 ft | 16 kts | 161° |
| 2026-05-05 11:05 | 22.31198 | 113.91978 | 39 ft | 19 kts | 161° |
| 2026-05-05 11:05 | 22.31059 | 113.92030 | 40 ft | 22 kts | 160° |
| 2026-05-05 11:05 | 22.30915 | 113.92085 | 40 ft | 21 kts | 160° |
| 2026-05-05 11:05 | 22.30781 | 113.92135 | 40 ft | 19 kts | 161° |
| 2026-05-05 11:06 | 22.30671 | 113.92156 | 40 ft | 12 kts | 204° |
| 2026-05-05 11:06 | 22.30638 | 113.92089 | 40 ft | 10 kts | 251° |
| 2026-05-05 11:06 | 22.30609 | 113.91998 | 39 ft | 15 kts | 251° |
| 2026-05-05 11:06 | 22.30568 | 113.91877 | 39 ft | 19 kts | 250° |
| 2026-05-05 11:07 | 22.30519 | 113.91728 | 38 ft | 22 kts | 250° |
| 2026-05-05 11:07 | 22.30463 | 113.91559 | 37 ft | 24 kts | 251° |
| 2026-05-05 11:07 | 22.30405 | 113.91379 | 37 ft | 25 kts | 251° |
| 2026-05-05 11:07 | 22.30350 | 113.91206 | 37 ft | 23 kts | 251° |
| 2026-05-05 11:08 | 22.30299 | 113.91047 | 36 ft | 21 kts | 251° |
| 2026-05-05 11:08 | 22.30252 | 113.90901 | 37 ft | 19 kts | 251° |
| 2026-05-05 11:08 | 22.30206 | 113.90756 | 37 ft | 21 kts | 251° |
| 2026-05-05 11:08 | 22.30158 | 113.90606 | 37 ft | 20 kts | 251° |
| 2026-05-05 11:09 | 22.30114 | 113.90469 | 38 ft | 18 kts | 251° |
| 2026-05-05 11:09 | 22.30075 | 113.90346 | 39 ft | 17 kts | 251° |
| 2026-05-05 11:09 | 22.30033 | 113.90213 | 39 ft | 20 kts | 251° |
| 2026-05-05 11:09 | 22.29981 | 113.90059 | 40 ft | 22 kts | 249° |
| 2026-05-05 11:10 | 22.29941 | 113.89946 | 40 ft | 22 kts | 250° |
| 2026-05-05 11:10 | 22.29925 | 113.89896 | 40 ft | 16 kts | 250° |
| 2026-05-05 11:10 | 22.29840 | 113.89854 | 39 ft | 16 kts | 168° |
| 2026-05-05 11:10 | 22.29729 | 113.89890 | 39 ft | 18 kts | 161° |
| 2026-05-05 11:11 | 22.29677 | 113.89967 | 39 ft | 11 kts | 79° |
| 2026-05-05 11:11 | 22.29694 | 113.90025 | 39 ft | 9 kts | 71° |
| 2026-05-05 11:11 | 22.29765 | 113.90247 | 39 ft | 65 kts | 71° |
| 2026-05-05 11:11 | 22.29995 | 113.90962 | 36 ft | 134 kts | 71° |
| 2026-05-05 11:12 | 22.30360 | 113.92076 | 241 ft | 170 kts | 70° |
| 2026-05-05 11:12 | 22.30750 | 113.93258 | 1023 ft | 171 kts | 71° |
| 2026-05-05 11:12 | 22.31120 | 113.94430 | 1901 ft | 167 kts | 71° |
| 2026-05-05 11:12 | 22.31465 | 113.95670 | 2420 ft | 176 kts | 77° |
| 2026-05-05 11:13 | 22.31865 | 113.96943 | 2947 ft | 185 kts | 70° |
| 2026-05-05 11:13 | 22.32353 | 113.98293 | 3292 ft | 206 kts | 72° |
| 2026-05-05 11:13 | 22.32851 | 113.99815 | 3583 ft | 231 kts | 72° |
| 2026-05-05 11:13 | 22.33393 | 114.01559 | 3973 ft | 254 kts | 73° |
| 2026-05-05 11:14 | 22.33843 | 114.03478 | 4495 ft | 270 kts | 86° |
| 2026-05-05 11:14 | 22.33609 | 114.05482 | 5211 ft | 273 kts | 114° |
| 2026-05-05 11:14 | 22.32553 | 114.07157 | 5963 ft | 275 kts | 139° |
| 2026-05-05 11:14 | 22.30970 | 114.08266 | 6727 ft | 276 kts | 161° |
| 2026-05-05 11:15 | 22.29103 | 114.08728 | 7519 ft | 277 kts | 176° |
| 2026-05-05 11:15 | 22.27156 | 114.08767 | 8277 ft | 281 kts | 183° |
| 2026-05-05 11:15 | 22.25194 | 114.08718 | 9020 ft | 286 kts | 184° |
| 2026-05-05 11:15 | 22.23195 | 114.08679 | 9756 ft | 291 kts | 184° |
| 2026-05-05 11:16 | 22.21141 | 114.08703 | 10402 ft | 302 kts | 178° |
| 2026-05-05 11:16 | 22.18990 | 114.09109 | 10827 ft | 323 kts | 166° |
| 2026-05-05 11:16 | 22.16856 | 114.10016 | 11255 ft | 343 kts | 154° |
| 2026-05-05 11:16 | 22.14803 | 114.11505 | 11708 ft | 363 kts | 141° |
| 2026-05-05 11:17 | 22.13061 | 114.13589 | 12133 ft | 383 kts | 125° |
| 2026-05-05 11:17 | 22.11635 | 114.16099 | 12612 ft | 399 kts | 121° |
| 2026-05-05 11:17 | 22.10231 | 114.18690 | 13317 ft | 407 kts | 121° |
| 2026-05-05 11:17 | 22.08792 | 114.21348 | 14097 ft | 413 kts | 121° |
| 2026-05-05 11:18 | 22.07330 | 114.24049 | 14861 ft | 420 kts | 121° |
| 2026-05-05 11:18 | 22.05850 | 114.26779 | 15635 ft | 426 kts | 122° |
| 2026-05-05 11:18 | 22.04368 | 114.29514 | 16406 ft | 432 kts | 122° |
| 2026-05-05 11:18 | 22.02845 | 114.32321 | 17114 ft | 438 kts | 122° |
| 2026-05-05 11:19 | 22.01280 | 114.35205 | 17833 ft | 445 kts | 122° |
| 2026-05-05 11:19 | 21.99718 | 114.38081 | 18627 ft | 448 kts | 122° |
| 2026-05-05 11:19 | 21.98153 | 114.40964 | 19431 ft | 451 kts | 122° |
| 2026-05-05 11:19 | 21.96571 | 114.43874 | 20161 ft | 455 kts | 122° |
| 2026-05-05 11:20 | 21.94963 | 114.46832 | 20836 ft | 461 kts | 122° |
| 2026-05-05 11:20 | 21.93342 | 114.49811 | 21512 ft | 466 kts | 122° |
| 2026-05-05 11:20 | 21.91692 | 114.52841 | 22179 ft | 471 kts | 122° |
| 2026-05-05 11:20 | 21.90030 | 114.55893 | 22823 ft | 476 kts | 122° |
| 2026-05-05 11:21 | 21.88349 | 114.58978 | 23425 ft | 482 kts | 122° |
| 2026-05-05 11:21 | 21.86617 | 114.62153 | 24023 ft | 488 kts | 122° |
| 2026-05-05 11:21 | 21.84900 | 114.65300 | 24597 ft | 494 kts | 122° |
| 2026-05-05 11:21 | 21.83164 | 114.68481 | 25159 ft | 500 kts | 122° |
| 2026-05-05 11:22 | 21.81377 | 114.71753 | 25695 ft | 507 kts | 122° |
| 2026-05-05 11:22 | 21.79573 | 114.75054 | 26304 ft | 512 kts | 122° |
| 2026-05-05 11:22 | 21.77773 | 114.78348 | 26894 ft | 516 kts | 122° |
| 2026-05-05 11:22 | 21.76144 | 114.81823 | 27410 ft | 524 kts | 114° |
| 2026-05-05 11:23 | 21.74987 | 114.85547 | 27910 ft | 531 kts | 104° |
| 2026-05-05 11:23 | 21.74345 | 114.89483 | 28476 ft | 536 kts | 95° |
| 2026-05-05 11:23 | 21.74252 | 114.93459 | 29012 ft | 539 kts | 85° |
| 2026-05-05 11:23 | 21.74591 | 114.97485 | 29550 ft | 543 kts | 82° |
| 2026-05-05 11:24 | 21.75013 | 115.01549 | 30108 ft | 547 kts | 82° |
| 2026-05-05 11:24 | 21.75438 | 115.05608 | 30685 ft | 550 kts | 82° |
| 2026-05-05 11:24 | 21.75863 | 115.09676 | 31326 ft | 551 kts | 82° |
| 2026-05-05 11:24 | 21.76289 | 115.13766 | 32036 ft | 550 kts | 82° |
| 2026-05-05 11:25 | 21.76716 | 115.17866 | 32765 ft | 548 kts | 82° |
| 2026-05-05 11:25 | 21.77133 | 115.21893 | 33499 ft | 545 kts | 82° |
| 2026-05-05 11:25 | 21.77554 | 115.25958 | 34233 ft | 543 kts | 82° |
| 2026-05-05 11:25 | 21.77964 | 115.29932 | 34948 ft | 540 kts | 82° |
| 2026-05-05 11:26 | 21.78386 | 115.34030 | 35626 ft | 537 kts | 82° |
| 2026-05-05 11:26 | 21.78796 | 115.38023 | 36216 ft | 535 kts | 82° |
| 2026-05-05 11:26 | 21.79205 | 115.42016 | 36740 ft | 534 kts | 82° |
| 2026-05-05 11:26 | 21.79608 | 115.45959 | 36963 ft | 538 kts | 82° |
| 2026-05-05 11:27 | 21.80017 | 115.49963 | 36963 ft | 538 kts | 82° |
| 2026-05-05 11:27 | 21.80828 | 115.57944 | 36966 ft | 538 kts | 82° |
| 2026-05-05 11:28 | 21.81638 | 115.65946 | 36969 ft | 539 kts | 83° |
| 2026-05-05 11:28 | 21.82446 | 115.73975 | 36960 ft | 539 kts | 83° |
| 2026-05-05 11:29 | 21.83250 | 115.82002 | 36959 ft | 539 kts | 82° |
| 2026-05-05 11:29 | 21.84049 | 115.90017 | 36958 ft | 539 kts | 83° |
| 2026-05-05 11:30 | 21.84842 | 115.98013 | 36959 ft | 539 kts | 83° |
| 2026-05-05 11:30 | 21.85634 | 116.06039 | 36965 ft | 539 kts | 83° |
| 2026-05-05 11:31 | 21.86423 | 116.14066 | 36964 ft | 538 kts | 83° |
| 2026-05-05 11:31 | 21.87203 | 116.22051 | 36968 ft | 539 kts | 83° |
| 2026-05-05 11:32 | 21.87982 | 116.30070 | 36968 ft | 538 kts | 83° |
| 2026-05-05 11:32 | 21.88759 | 116.38095 | 36970 ft | 539 kts | 83° |
| 2026-05-05 11:33 | 21.89529 | 116.46101 | 36970 ft | 539 kts | 83° |
| 2026-05-05 11:33 | 21.90301 | 116.54166 | 36973 ft | 541 kts | 83° |
| 2026-05-05 11:34 | 21.91067 | 116.62208 | 36972 ft | 540 kts | 83° |
| 2026-05-05 11:34 | 21.91828 | 116.70245 | 36958 ft | 541 kts | 83° |
| 2026-05-05 11:35 | 21.92585 | 116.78278 | 36952 ft | 541 kts | 83° |
| 2026-05-05 11:35 | 21.93341 | 116.86340 | 36959 ft | 541 kts | 84° |
| 2026-05-05 11:36 | 21.94092 | 116.94399 | 36965 ft | 542 kts | 83° |
| 2026-05-05 11:36 | 21.94837 | 117.02427 | 36963 ft | 541 kts | 83° |
| 2026-05-05 11:37 | 21.95578 | 117.10460 | 36964 ft | 541 kts | 83° |
| 2026-05-05 11:37 | 21.96320 | 117.18556 | 36978 ft | 542 kts | 84° |
| 2026-05-05 11:38 | 21.97056 | 117.26622 | 36980 ft | 540 kts | 83° |
| 2026-05-05 11:38 | 21.97784 | 117.34646 | 36982 ft | 540 kts | 83° |
| 2026-05-05 11:39 | 21.98509 | 117.42675 | 36982 ft | 541 kts | 84° |
| 2026-05-05 11:39 | 22.00070 | 117.50532 | 36980 ft | 538 kts | 67° |
| 2026-05-05 11:40 | 22.03442 | 117.57693 | 36987 ft | 533 kts | 55° |
| 2026-05-05 11:40 | 22.07654 | 117.64226 | 36982 ft | 531 kts | 49° |
| 2026-05-05 11:41 | 22.12126 | 117.70497 | 36964 ft | 529 kts | 49° |
| 2026-05-05 11:41 | 22.16608 | 117.76784 | 36965 ft | 531 kts | 49° |
| 2026-05-05 11:42 | 22.21115 | 117.83115 | 36968 ft | 530 kts | 49° |
| 2026-05-05 11:42 | 22.25608 | 117.89432 | 36967 ft | 531 kts | 49° |
| 2026-05-05 11:43 | 22.30131 | 117.95799 | 36973 ft | 534 kts | 49° |
| 2026-05-05 11:43 | 22.34624 | 118.02132 | 36974 ft | 533 kts | 49° |
| 2026-05-05 11:44 | 22.39115 | 118.08471 | 36974 ft | 533 kts | 49° |
| 2026-05-05 11:44 | 22.43630 | 118.14850 | 36981 ft | 533 kts | 49° |
| 2026-05-05 11:45 | 22.48127 | 118.21211 | 36976 ft | 533 kts | 49° |
| 2026-05-05 11:45 | 22.52638 | 118.27600 | 36983 ft | 535 kts | 49° |
| 2026-05-05 11:46 | 22.57138 | 118.33981 | 36979 ft | 533 kts | 49° |
| 2026-05-05 11:46 | 22.61639 | 118.40370 | 36983 ft | 535 kts | 49° |
| 2026-05-05 11:47 | 22.66139 | 118.46768 | 36984 ft | 535 kts | 49° |
| 2026-05-05 11:47 | 22.70641 | 118.53174 | 36985 ft | 536 kts | 49° |
| 2026-05-05 11:48 | 22.77393 | 118.62799 | 36992 ft | 537 kts | 49° |
| 2026-05-05 11:48 | 22.81939 | 118.69287 | 36982 ft | 538 kts | 49° |
| 2026-05-05 11:49 | 22.86459 | 118.75748 | 36974 ft | 538 kts | 49° |
| 2026-05-05 11:49 | 22.90946 | 118.82170 | 36977 ft | 538 kts | 49° |
| 2026-05-05 11:50 | 22.95485 | 118.88673 | 36981 ft | 539 kts | 49° |
| 2026-05-05 11:50 | 23.00021 | 118.95182 | 36982 ft | 539 kts | 49° |
| 2026-05-05 11:51 | 23.04513 | 119.01634 | 36992 ft | 540 kts | 49° |
| 2026-05-05 11:51 | 23.09057 | 119.08171 | 36986 ft | 539 kts | 49° |
| 2026-05-05 11:52 | 23.13593 | 119.14703 | 36993 ft | 542 kts | 49° |
| 2026-05-05 11:52 | 23.18101 | 119.21204 | 36993 ft | 540 kts | 49° |
| 2026-05-05 11:53 | 23.22627 | 119.27738 | 36990 ft | 541 kts | 50° |
| 2026-05-05 11:53 | 23.27155 | 119.34285 | 36993 ft | 540 kts | 50° |
| 2026-05-05 11:54 | 23.31661 | 119.40807 | 36993 ft | 541 kts | 49° |
| 2026-05-05 11:54 | 23.36196 | 119.47380 | 36996 ft | 541 kts | 49° |
| 2026-05-05 11:55 | 23.40699 | 119.53915 | 36998 ft | 542 kts | 49° |
| 2026-05-05 11:55 | 23.45233 | 119.60503 | 37001 ft | 543 kts | 50° |
| 2026-05-05 11:56 | 23.49746 | 119.67071 | 36984 ft | 543 kts | 50° |
| 2026-05-05 11:56 | 23.54278 | 119.73673 | 36981 ft | 543 kts | 50° |
| 2026-05-05 11:57 | 23.58798 | 119.80267 | 36980 ft | 544 kts | 50° |
| 2026-05-05 11:57 | 23.63287 | 119.86823 | 36984 ft | 542 kts | 50° |
| 2026-05-05 11:58 | 23.67812 | 119.93442 | 36983 ft | 544 kts | 50° |
| 2026-05-05 11:58 | 23.72330 | 120.00057 | 36984 ft | 544 kts | 50° |
| 2026-05-05 11:59 | 23.76825 | 120.06650 | 36990 ft | 543 kts | 50° |
| 2026-05-05 11:59 | 23.81365 | 120.13316 | 36992 ft | 546 kts | 50° |
| 2026-05-05 12:00 | 23.85878 | 120.19952 | 37012 ft | 545 kts | 50° |
| 2026-05-05 12:00 | 23.90384 | 120.26586 | 37023 ft | 546 kts | 50° |
| 2026-05-05 12:01 | 23.94920 | 120.33273 | 37025 ft | 548 kts | 50° |
| 2026-05-05 12:01 | 23.99434 | 120.39937 | 37033 ft | 546 kts | 50° |
| 2026-05-05 12:02 | 24.03950 | 120.46613 | 37036 ft | 548 kts | 50° |
| 2026-05-05 12:02 | 24.08491 | 120.53333 | 37041 ft | 551 kts | 50° |
| 2026-05-05 12:03 | 24.13072 | 120.60123 | 37042 ft | 550 kts | 50° |
| 2026-05-05 12:03 | 24.17583 | 120.66818 | 37034 ft | 552 kts | 51° |
| 2026-05-05 12:04 | 24.22125 | 120.73571 | 37038 ft | 550 kts | 51° |
| 2026-05-05 12:04 | 24.26681 | 120.80351 | 37059 ft | 551 kts | 51° |
| 2026-05-05 12:05 | 24.31225 | 120.87124 | 37093 ft | 552 kts | 51° |
| 2026-05-05 12:05 | 24.35751 | 120.93879 | 37134 ft | 550 kts | 51° |
| 2026-05-05 12:06 | 24.40301 | 121.00678 | 37182 ft | 552 kts | 51° |
| 2026-05-05 12:06 | 24.44929 | 121.07314 | 37214 ft | 551 kts | 48° |
| 2026-05-05 12:07 | 24.49715 | 121.13860 | 37204 ft | 549 kts | 48° |
| 2026-05-05 12:07 | 24.54477 | 121.20396 | 37199 ft | 550 kts | 48° |
| 2026-05-05 12:08 | 24.59255 | 121.26980 | 37197 ft | 551 kts | 48° |
| 2026-05-05 12:08 | 24.64023 | 121.33566 | 37141 ft | 550 kts | 48° |
| 2026-05-05 12:09 | 24.68763 | 121.40126 | 37098 ft | 549 kts | 48° |
| 2026-05-05 12:09 | 24.73503 | 121.46697 | 37081 ft | 551 kts | 49° |
| 2026-05-05 12:10 | 24.78286 | 121.53339 | 37060 ft | 550 kts | 48° |
| 2026-05-05 12:10 | 24.83019 | 121.59923 | 37032 ft | 552 kts | 48° |
| 2026-05-05 12:11 | 24.87750 | 121.66513 | 37020 ft | 549 kts | 49° |
| 2026-05-05 12:11 | 24.92571 | 121.73020 | 37031 ft | 549 kts | 45° |
| 2026-05-05 12:12 | 24.97591 | 121.79356 | 37032 ft | 549 kts | 45° |
| 2026-05-05 12:12 | 25.02613 | 121.85718 | 37021 ft | 547 kts | 45° |
| 2026-05-05 12:13 | 25.07573 | 121.92026 | 37026 ft | 550 kts | 46° |
| 2026-05-05 12:13 | 25.12592 | 121.98428 | 37006 ft | 547 kts | 46° |
| 2026-05-05 12:14 | 25.17571 | 122.04846 | 37003 ft | 553 kts | 46° |
| 2026-05-05 12:14 | 25.22538 | 122.11290 | 36998 ft | 553 kts | 47° |
| 2026-05-05 12:15 | 25.27512 | 122.17751 | 36997 ft | 553 kts | 47° |
| 2026-05-05 12:15 | 25.32507 | 122.24249 | 37009 ft | 554 kts | 46° |
| 2026-05-05 12:16 | 25.37494 | 122.30745 | 37002 ft | 558 kts | 47° |
| 2026-05-05 12:16 | 25.42503 | 122.37279 | 37013 ft | 556 kts | 47° |
| 2026-05-05 12:17 | 25.47513 | 122.43823 | 37010 ft | 560 kts | 47° |
| 2026-05-05 12:17 | 25.52545 | 122.50396 | 37003 ft | 557 kts | 47° |
| 2026-05-05 12:18 | 25.57570 | 122.56921 | 37017 ft | 559 kts | 46° |
| 2026-05-05 12:18 | 25.62616 | 122.63482 | 37024 ft | 563 kts | 46° |
| 2026-05-05 12:19 | 25.67683 | 122.70082 | 37001 ft | 561 kts | 47° |
| 2026-05-05 12:19 | 25.72763 | 122.76711 | 37012 ft | 564 kts | 46° |
| 2026-05-05 12:20 | 25.77847 | 122.83352 | 37010 ft | 565 kts | 47° |
| 2026-05-05 12:20 | 25.82918 | 122.89988 | 37015 ft | 565 kts | 46° |
| 2026-05-05 12:21 | 25.88011 | 122.96660 | 37011 ft | 571 kts | 46° |
| 2026-05-05 12:21 | 25.93112 | 123.03359 | 37026 ft | 566 kts | 46° |
| 2026-05-05 12:22 | 25.98198 | 123.10047 | 37009 ft | 569 kts | 47° |
| 2026-05-05 12:22 | 26.03303 | 123.16773 | 37023 ft | 567 kts | 47° |
| 2026-05-05 12:23 | 26.08377 | 123.23467 | 37025 ft | 568 kts | 47° |
| 2026-05-05 12:23 | 26.13472 | 123.30197 | 37021 ft | 567 kts | 47° |
| 2026-05-05 12:24 | 26.18554 | 123.36921 | 37018 ft | 570 kts | 47° |
| 2026-05-05 12:24 | 26.23615 | 123.43628 | 37029 ft | 567 kts | 48° |
| 2026-05-05 12:25 | 26.28702 | 123.50378 | 37039 ft | 568 kts | 47° |
| 2026-05-05 12:25 | 26.33757 | 123.57097 | 37039 ft | 568 kts | 47° |
| 2026-05-05 12:26 | 26.38834 | 123.63854 | 37045 ft | 567 kts | 47° |
| 2026-05-05 12:26 | 26.43889 | 123.70592 | 37035 ft | 570 kts | 49° |
| 2026-05-05 12:27 | 26.48961 | 123.77364 | 37042 ft | 569 kts | 48° |
| 2026-05-05 12:27 | 26.54046 | 123.84162 | 37043 ft | 567 kts | 48° |
| 2026-05-05 12:28 | 26.59058 | 123.90874 | 37047 ft | 568 kts | 48° |
| 2026-05-05 12:28 | 26.64123 | 123.97667 | 37059 ft | 569 kts | 49° |
| 2026-05-05 12:29 | 26.69184 | 124.04449 | 37060 ft | 567 kts | 48° |
| 2026-05-05 12:29 | 26.74267 | 124.11249 | 37062 ft | 570 kts | 47° |
| 2026-05-05 12:30 | 26.79336 | 124.18042 | 37064 ft | 571 kts | 47° |
| 2026-05-05 12:30 | 26.84408 | 124.24850 | 37067 ft | 571 kts | 47° |
| 2026-05-05 12:31 | 26.89473 | 124.31660 | 37075 ft | 571 kts | 47° |
| 2026-05-05 12:31 | 26.94581 | 124.38538 | 37080 ft | 571 kts | 47° |
| 2026-05-05 12:32 | 26.99664 | 124.45393 | 37081 ft | 571 kts | 48° |
| 2026-05-05 12:32 | 27.04726 | 124.52225 | 37084 ft | 574 kts | 48° |
| 2026-05-05 12:33 | 27.09824 | 124.59116 | 37089 ft | 575 kts | 48° |
| 2026-05-05 12:33 | 27.14921 | 124.66018 | 37070 ft | 575 kts | 49° |
| 2026-05-05 12:34 | 27.20035 | 124.72953 | 37057 ft | 576 kts | 48° |
| 2026-05-05 12:34 | 27.25156 | 124.79909 | 37062 ft | 577 kts | 48° |
| 2026-05-05 12:35 | 27.30229 | 124.86811 | 37062 ft | 575 kts | 48° |
| 2026-05-05 12:35 | 27.35361 | 124.93802 | 37066 ft | 577 kts | 49° |
| 2026-05-05 12:36 | 27.40441 | 125.00736 | 37069 ft | 576 kts | 48° |
| 2026-05-05 12:36 | 27.45570 | 125.07654 | 37071 ft | 577 kts | 47° |
| 2026-05-05 12:37 | 27.50684 | 125.14553 | 37071 ft | 575 kts | 47° |
| 2026-05-05 12:37 | 27.55806 | 125.21476 | 37075 ft | 576 kts | 47° |
| 2026-05-05 12:38 | 27.60932 | 125.28418 | 37078 ft | 577 kts | 47° |
| 2026-05-05 12:38 | 27.66037 | 125.35342 | 37079 ft | 575 kts | 47° |
| 2026-05-05 12:39 | 27.71145 | 125.42281 | 37082 ft | 579 kts | 47° |
| 2026-05-05 12:39 | 27.76292 | 125.49288 | 37083 ft | 576 kts | 48° |
| 2026-05-05 12:40 | 27.81395 | 125.56245 | 37086 ft | 578 kts | 47° |
| 2026-05-05 12:40 | 27.86539 | 125.63269 | 37088 ft | 577 kts | 48° |
| 2026-05-05 12:41 | 27.91650 | 125.70260 | 37068 ft | 578 kts | 49° |
| 2026-05-05 12:41 | 27.96735 | 125.77226 | 37072 ft | 578 kts | 49° |
| 2026-05-05 12:42 | 28.01866 | 125.84268 | 37071 ft | 579 kts | 49° |
| 2026-05-05 12:42 | 28.07011 | 125.91340 | 37080 ft | 581 kts | 48° |
| 2026-05-05 12:43 | 28.12110 | 125.98362 | 37064 ft | 578 kts | 48° |
| 2026-05-05 12:43 | 28.17246 | 126.05445 | 37069 ft | 581 kts | 49° |
| 2026-05-05 12:44 | 28.22340 | 126.12482 | 37068 ft | 578 kts | 49° |
| 2026-05-05 12:44 | 28.27432 | 126.19527 | 37068 ft | 581 kts | 49° |
| 2026-05-05 12:45 | 28.32536 | 126.26603 | 37069 ft | 579 kts | 48° |
| 2026-05-05 12:45 | 28.37662 | 126.33719 | 37074 ft | 580 kts | 48° |
| 2026-05-05 12:46 | 28.42763 | 126.40813 | 37078 ft | 582 kts | 48° |
| 2026-05-05 12:46 | 28.47847 | 126.47896 | 37082 ft | 580 kts | 49° |
| 2026-05-05 12:47 | 28.52966 | 126.55039 | 37086 ft | 582 kts | 49° |
| 2026-05-05 12:47 | 28.58024 | 126.62109 | 37085 ft | 580 kts | 48° |
| 2026-05-05 12:48 | 28.63131 | 126.69260 | 37066 ft | 581 kts | 48° |
| 2026-05-05 12:48 | 28.68227 | 126.76407 | 37069 ft | 582 kts | 49° |
| 2026-05-05 12:49 | 28.73330 | 126.83576 | 37069 ft | 581 kts | 49° |
| 2026-05-05 12:49 | 28.78403 | 126.90717 | 37070 ft | 583 kts | 48° |
| 2026-05-05 12:50 | 28.83519 | 126.97930 | 37074 ft | 581 kts | 48° |
| 2026-05-05 12:50 | 28.88586 | 127.05085 | 37075 ft | 582 kts | 49° |
| 2026-05-05 12:51 | 28.93662 | 127.12266 | 37078 ft | 583 kts | 48° |
| 2026-05-05 12:51 | 28.98758 | 127.19487 | 37083 ft | 583 kts | 48° |
| 2026-05-05 12:52 | 29.03817 | 127.26668 | 37089 ft | 583 kts | 49° |
| 2026-05-05 12:52 | 29.08891 | 127.33884 | 37094 ft | 583 kts | 49° |
| 2026-05-05 12:53 | 29.13957 | 127.41103 | 37087 ft | 581 kts | 49° |
| 2026-05-05 12:53 | 29.19020 | 127.48327 | 37092 ft | 583 kts | 48° |
| 2026-05-05 12:54 | 29.26580 | 127.59139 | 37099 ft | 583 kts | 49° |
| 2026-05-05 12:55 | 29.31608 | 127.66346 | 37097 ft | 582 kts | 49° |
| 2026-05-05 12:55 | 29.36577 | 127.73769 | 37088 ft | 585 kts | 52° |
| 2026-05-05 12:56 | 29.41366 | 127.81225 | 37097 ft | 583 kts | 52° |
| 2026-05-05 12:56 | 29.46091 | 127.88770 | 37097 ft | 584 kts | 52° |
| 2026-05-05 12:57 | 29.50807 | 127.96325 | 37110 ft | 583 kts | 52° |
| 2026-05-05 12:57 | 29.55526 | 128.03899 | 37115 ft | 585 kts | 52° |
| 2026-05-05 12:58 | 29.60251 | 128.11496 | 37118 ft | 582 kts | 52° |
| 2026-05-05 12:58 | 29.64946 | 128.19060 | 37122 ft | 584 kts | 52° |
| 2026-05-05 12:59 | 29.69647 | 128.26645 | 37118 ft | 583 kts | 52° |
| 2026-05-05 12:59 | 29.74334 | 128.34224 | 37115 ft | 583 kts | 52° |
| 2026-05-05 13:00 | 29.81384 | 128.45648 | 37114 ft | 583 kts | 52° |
| 2026-05-05 13:01 | 29.90764 | 128.60899 | 37118 ft | 584 kts | 52° |
| 2026-05-05 13:01 | 29.95416 | 128.68484 | 37097 ft | 583 kts | 53° |
| 2026-05-05 13:02 | 30.00101 | 128.76138 | 37098 ft | 583 kts | 53° |
| 2026-05-05 13:02 | 30.04746 | 128.83740 | 37101 ft | 582 kts | 53° |
| 2026-05-05 13:03 | 30.09404 | 128.91377 | 37100 ft | 582 kts | 53° |
| 2026-05-05 13:03 | 30.14070 | 128.99043 | 37093 ft | 582 kts | 53° |
| 2026-05-05 13:04 | 30.18699 | 129.06662 | 37098 ft | 583 kts | 52° |
| 2026-05-05 13:04 | 30.23338 | 129.14311 | 37101 ft | 582 kts | 53° |
| 2026-05-05 13:05 | 30.27995 | 129.22005 | 37104 ft | 584 kts | 53° |
| 2026-05-05 13:05 | 30.32627 | 129.29675 | 37102 ft | 581 kts | 53° |
| 2026-05-05 13:06 | 30.37244 | 129.37332 | 37108 ft | 584 kts | 53° |
| 2026-05-05 13:06 | 30.41881 | 129.45036 | 37108 ft | 581 kts | 53° |
| 2026-05-05 13:07 | 30.46492 | 129.52713 | 37114 ft | 583 kts | 53° |
| 2026-05-05 13:07 | 30.51109 | 129.60416 | 37117 ft | 583 kts | 53° |
| 2026-05-05 13:08 | 30.55723 | 129.68127 | 37101 ft | 583 kts | 53° |
| 2026-05-05 13:08 | 30.60335 | 129.75850 | 37100 ft | 582 kts | 54° |
| 2026-05-05 13:09 | 30.64910 | 129.83525 | 37105 ft | 584 kts | 53° |
| 2026-05-05 13:09 | 30.69525 | 129.91284 | 37104 ft | 582 kts | 53° |
| 2026-05-05 13:10 | 30.74125 | 129.99033 | 37116 ft | 583 kts | 53° |
| 2026-05-05 13:10 | 30.78703 | 130.06760 | 37118 ft | 582 kts | 53° |
| 2026-05-05 13:11 | 30.83303 | 130.14537 | 37122 ft | 582 kts | 53° |
| 2026-05-05 13:11 | 30.87872 | 130.22278 | 37125 ft | 582 kts | 53° |
| 2026-05-05 13:12 | 30.92455 | 130.30057 | 37128 ft | 583 kts | 53° |
| 2026-05-05 13:12 | 30.96996 | 130.37782 | 37132 ft | 583 kts | 54° |
| 2026-05-05 13:13 | 31.01580 | 130.45595 | 37136 ft | 583 kts | 54° |
| 2026-05-05 13:13 | 31.06142 | 130.53384 | 37147 ft | 582 kts | 53° |
| 2026-05-05 13:14 | 31.10705 | 130.61194 | 37150 ft | 584 kts | 54° |
| 2026-05-05 13:14 | 31.15291 | 130.69057 | 37127 ft | 584 kts | 54° |
| 2026-05-05 13:15 | 31.19833 | 130.76859 | 37125 ft | 586 kts | 54° |
| 2026-05-05 13:15 | 31.24379 | 130.84683 | 37135 ft | 583 kts | 54° |
| 2026-05-05 13:16 | 31.28965 | 130.92593 | 37155 ft | 586 kts | 54° |
| 2026-05-05 13:16 | 31.33498 | 131.00430 | 37165 ft | 585 kts | 54° |
| 2026-05-05 13:17 | 31.38036 | 131.08289 | 37166 ft | 584 kts | 54° |
| 2026-05-05 13:17 | 31.42552 | 131.16127 | 37165 ft | 584 kts | 54° |
| 2026-05-05 13:18 | 31.47129 | 131.24085 | 37168 ft | 586 kts | 54° |
| 2026-05-05 13:18 | 31.51641 | 131.31947 | 37169 ft | 584 kts | 54° |
| 2026-05-05 13:19 | 31.56167 | 131.39848 | 37169 ft | 586 kts | 54° |
| 2026-05-05 13:19 | 31.60699 | 131.47777 | 37173 ft | 585 kts | 54° |
| 2026-05-05 13:20 | 31.65216 | 131.55698 | 37171 ft | 587 kts | 54° |
| 2026-05-05 13:20 | 31.69735 | 131.63637 | 37177 ft | 585 kts | 54° |
| 2026-05-05 13:21 | 31.74241 | 131.71567 | 37149 ft | 586 kts | 54° |
| 2026-05-05 13:21 | 31.78775 | 131.79567 | 37152 ft | 586 kts | 55° |
| 2026-05-05 13:22 | 31.83265 | 131.87505 | 37154 ft | 587 kts | 54° |
| 2026-05-05 13:22 | 31.87792 | 131.95523 | 37152 ft | 587 kts | 54° |
| 2026-05-05 13:23 | 31.92271 | 132.03474 | 37160 ft | 586 kts | 55° |
| 2026-05-05 13:23 | 31.96773 | 132.11482 | 37166 ft | 585 kts | 55° |
| 2026-05-05 13:24 | 32.01245 | 132.19453 | 37179 ft | 588 kts | 54° |
| 2026-05-05 13:24 | 32.05747 | 132.27495 | 37190 ft | 585 kts | 54° |
| 2026-05-05 13:25 | 32.10211 | 132.35484 | 37189 ft | 588 kts | 55° |
| 2026-05-05 13:25 | 32.14215 | 132.43739 | 37183 ft | 588 kts | 62° |
| 2026-05-05 13:26 | 32.17908 | 132.52376 | 37180 ft | 588 kts | 63° |
| 2026-05-05 13:26 | 32.21547 | 132.60942 | 37180 ft | 587 kts | 63° |
| 2026-05-05 13:27 | 32.25214 | 132.69604 | 37160 ft | 589 kts | 63° |
| 2026-05-05 13:27 | 32.28843 | 132.78207 | 37170 ft | 587 kts | 63° |
| 2026-05-05 13:28 | 32.32477 | 132.86845 | 37171 ft | 587 kts | 63° |
| 2026-05-05 13:28 | 32.36110 | 132.95505 | 37179 ft | 587 kts | 63° |
| 2026-05-05 13:29 | 32.39727 | 133.04149 | 37179 ft | 588 kts | 63° |
| 2026-05-05 13:29 | 32.43323 | 133.12764 | 37181 ft | 587 kts | 63° |
| 2026-05-05 13:30 | 32.46911 | 133.21381 | 37185 ft | 587 kts | 63° |
| 2026-05-05 13:30 | 32.50521 | 133.30072 | 37189 ft | 588 kts | 63° |
| 2026-05-05 13:31 | 32.54112 | 133.38739 | 37191 ft | 586 kts | 63° |
| 2026-05-05 13:31 | 32.57675 | 133.47357 | 37192 ft | 588 kts | 63° |
| 2026-05-05 13:32 | 32.61256 | 133.56039 | 37195 ft | 586 kts | 63° |
| 2026-05-05 13:32 | 32.64841 | 133.64755 | 37198 ft | 588 kts | 63° |
| 2026-05-05 13:33 | 32.68394 | 133.73412 | 37180 ft | 586 kts | 64° |
| 2026-05-05 13:33 | 32.71963 | 133.82130 | 37187 ft | 586 kts | 64° |
| 2026-05-05 13:34 | 32.75525 | 133.90852 | 37192 ft | 588 kts | 64° |
| 2026-05-05 13:34 | 32.79053 | 133.99516 | 37194 ft | 585 kts | 64° |
| 2026-05-05 13:35 | 32.82400 | 134.08308 | 37189 ft | 588 kts | 72° |
| 2026-05-05 13:35 | 32.84807 | 134.17600 | 37210 ft | 586 kts | 75° |
| 2026-05-05 13:36 | 32.87109 | 134.26848 | 37214 ft | 587 kts | 75° |
| 2026-05-05 13:36 | 32.89410 | 134.36114 | 37207 ft | 585 kts | 76° |
| 2026-05-05 13:37 | 32.91711 | 134.45413 | 37215 ft | 588 kts | 75° |
| 2026-05-05 13:37 | 32.93996 | 134.54672 | 37220 ft | 584 kts | 75° |
| 2026-05-05 13:38 | 32.96272 | 134.63927 | 37221 ft | 587 kts | 75° |
| 2026-05-05 13:38 | 32.98550 | 134.73222 | 37194 ft | 585 kts | 75° |
| 2026-05-05 13:39 | 33.00386 | 134.82669 | 37189 ft | 582 kts | 85° |
| 2026-05-05 13:39 | 33.01533 | 134.92207 | 37194 ft | 587 kts | 80° |
| 2026-05-05 13:40 | 33.03896 | 135.01483 | 37202 ft | 586 kts | 72° |
| 2026-05-05 13:40 | 33.06536 | 135.10692 | 37202 ft | 590 kts | 72° |
| 2026-05-05 13:41 | 33.09163 | 135.19873 | 37205 ft | 586 kts | 72° |
| 2026-05-05 13:41 | 33.11784 | 135.29062 | 37195 ft | 590 kts | 72° |
| 2026-05-05 13:42 | 33.14421 | 135.38338 | 37200 ft | 586 kts | 71° |
| 2026-05-05 13:42 | 33.17022 | 135.47519 | 37208 ft | 588 kts | 72° |
| 2026-05-05 13:43 | 33.19630 | 135.56752 | 37212 ft | 589 kts | 72° |
| 2026-05-05 13:43 | 33.22224 | 135.65961 | 37211 ft | 587 kts | 73° |
| 2026-05-05 13:44 | 33.24818 | 135.75206 | 37205 ft | 588 kts | 72° |
| 2026-05-05 13:44 | 33.27394 | 135.84415 | 37214 ft | 589 kts | 73° |
| 2026-05-05 13:45 | 33.29970 | 135.93652 | 37218 ft | 588 kts | 72° |
| 2026-05-05 13:45 | 33.32558 | 136.02966 | 37226 ft | 589 kts | 72° |
| 2026-05-05 13:46 | 33.35117 | 136.12199 | 37234 ft | 588 kts | 73° |
| 2026-05-05 13:46 | 33.37691 | 136.21523 | 37236 ft | 589 kts | 73° |
| 2026-05-05 13:47 | 33.40229 | 136.30747 | 37238 ft | 590 kts | 73° |
| 2026-05-05 13:47 | 33.42784 | 136.40060 | 37245 ft | 587 kts | 72° |
| 2026-05-05 13:48 | 33.45326 | 136.49358 | 37243 ft | 588 kts | 72° |
| 2026-05-05 13:48 | 33.47844 | 136.58598 | 37254 ft | 589 kts | 72° |
| 2026-05-05 13:49 | 33.50368 | 136.67889 | 37232 ft | 588 kts | 73° |
| 2026-05-05 13:49 | 33.52880 | 136.77168 | 37231 ft | 587 kts | 73° |
| 2026-05-05 13:50 | 33.55404 | 136.86522 | 37234 ft | 590 kts | 73° |
| 2026-05-05 13:50 | 33.57915 | 136.95860 | 37237 ft | 587 kts | 73° |
| 2026-05-05 13:51 | 33.60408 | 137.05167 | 37236 ft | 588 kts | 72° |
| 2026-05-05 13:51 | 33.62894 | 137.14475 | 37236 ft | 588 kts | 72° |
| 2026-05-05 13:52 | 33.65379 | 137.23805 | 37240 ft | 587 kts | 73° |
| 2026-05-05 13:52 | 33.67847 | 137.33109 | 37244 ft | 589 kts | 73° |
| 2026-05-05 13:53 | 33.70316 | 137.42448 | 37249 ft | 587 kts | 73° |
| 2026-05-05 13:53 | 33.72774 | 137.51779 | 37253 ft | 588 kts | 72° |
| 2026-05-05 13:54 | 33.75227 | 137.61118 | 37258 ft | 588 kts | 73° |
| 2026-05-05 13:54 | 33.77673 | 137.70468 | 37240 ft | 588 kts | 74° |
| 2026-05-05 13:55 | 33.80112 | 137.79822 | 37234 ft | 588 kts | 73° |
| 2026-05-05 13:55 | 33.82547 | 137.89191 | 37231 ft | 586 kts | 74° |
| 2026-05-05 13:56 | 33.84975 | 137.98566 | 37236 ft | 588 kts | 73° |
| 2026-05-05 13:56 | 33.87385 | 138.07904 | 37242 ft | 587 kts | 74° |
| 2026-05-05 13:57 | 33.89802 | 138.17307 | 37245 ft | 588 kts | 73° |
| 2026-05-05 13:57 | 33.92200 | 138.26662 | 37251 ft | 588 kts | 73° |
| 2026-05-05 13:58 | 33.94600 | 138.36063 | 37249 ft | 587 kts | 72° |
| 2026-05-05 13:58 | 33.96991 | 138.45458 | 37252 ft | 589 kts | 73° |
| 2026-05-05 13:59 | 34.00552 | 138.59515 | 37253 ft | 588 kts | 73° |
| 2026-05-05 14:00 | 34.04118 | 138.73668 | 37247 ft | 587 kts | 73° |
| 2026-05-05 14:00 | 34.06467 | 138.83031 | 37255 ft | 585 kts | 74° |
| 2026-05-05 14:01 | 34.08828 | 138.92480 | 37257 ft | 587 kts | 73° |
| 2026-05-05 14:01 | 34.11162 | 139.01851 | 37256 ft | 587 kts | 73° |
| 2026-05-05 14:02 | 34.13502 | 139.11281 | 37257 ft | 588 kts | 73° |
| 2026-05-05 14:02 | 34.15830 | 139.20697 | 37259 ft | 587 kts | 74° |
| 2026-05-05 14:03 | 34.18154 | 139.30131 | 37258 ft | 586 kts | 74° |
| 2026-05-05 14:03 | 34.19306 | 139.34819 | 36776 ft | 581 kts | 74° |
| 2026-05-05 14:03 | 34.20447 | 139.39471 | 35725 ft | 587 kts | 75° |
| 2026-05-05 14:04 | 34.21599 | 139.44179 | 34861 ft | 588 kts | 75° |
| 2026-05-05 14:04 | 34.22765 | 139.48955 | 34036 ft | 588 kts | 74° |
| 2026-05-05 14:04 | 34.23908 | 139.53639 | 33201 ft | 589 kts | 75° |
| 2026-05-05 14:04 | 34.25069 | 139.58408 | 32364 ft | 590 kts | 75° |
| 2026-05-05 14:05 | 34.26208 | 139.63097 | 31476 ft | 592 kts | 74° |
| 2026-05-05 14:05 | 34.27373 | 139.67900 | 30664 ft | 591 kts | 75° |
| 2026-05-05 14:05 | 34.28504 | 139.72574 | 30182 ft | 583 kts | 75° |
| 2026-05-05 14:05 | 34.29638 | 139.77267 | 29674 ft | 576 kts | 74° |
| 2026-05-05 14:06 | 34.30740 | 139.81834 | 29125 ft | 571 kts | 74° |
| 2026-05-05 14:06 | 34.31845 | 139.86421 | 28576 ft | 566 kts | 75° |
| 2026-05-05 14:06 | 34.32941 | 139.90984 | 28014 ft | 562 kts | 74° |
| 2026-05-05 14:06 | 34.34191 | 139.95377 | 27431 ft | 557 kts | 66° |
| 2026-05-05 14:07 | 34.35921 | 139.99568 | 26846 ft | 550 kts | 57° |
| 2026-05-05 14:07 | 34.38049 | 140.03365 | 26253 ft | 543 kts | 49° |
| 2026-05-05 14:07 | 34.40388 | 140.06888 | 25678 ft | 537 kts | 47° |
| 2026-05-05 14:07 | 34.42723 | 140.10352 | 25075 ft | 533 kts | 47° |
| 2026-05-05 14:08 | 34.45069 | 140.13853 | 24469 ft | 528 kts | 47° |
| 2026-05-05 14:08 | 34.47486 | 140.17038 | 24231 ft | 510 kts | 39° |
| 2026-05-05 14:08 | 34.50147 | 140.19713 | 24219 ft | 487 kts | 32° |
| 2026-05-05 14:08 | 34.52827 | 140.22144 | 24234 ft | 469 kts | 31° |
| 2026-05-05 14:09 | 34.55431 | 140.24486 | 24248 ft | 475 kts | 31° |
| 2026-05-05 14:09 | 34.58126 | 140.26904 | 24256 ft | 489 kts | 31° |
| 2026-05-05 14:09 | 34.60857 | 140.29361 | 24273 ft | 489 kts | 31° |
| 2026-05-05 14:09 | 34.63593 | 140.31827 | 24295 ft | 492 kts | 31° |
| 2026-05-05 14:10 | 34.66347 | 140.34311 | 24298 ft | 490 kts | 31° |
| 2026-05-05 14:10 | 34.69091 | 140.36787 | 24318 ft | 491 kts | 31° |
| 2026-05-05 14:10 | 34.71838 | 140.39269 | 24336 ft | 492 kts | 32° |
| 2026-05-05 14:10 | 34.74567 | 140.41736 | 24160 ft | 493 kts | 31° |
| 2026-05-05 14:11 | 34.77338 | 140.44243 | 23680 ft | 492 kts | 32° |
| 2026-05-05 14:11 | 34.80060 | 140.46710 | 23104 ft | 489 kts | 32° |
| 2026-05-05 14:11 | 34.82780 | 140.49178 | 22521 ft | 485 kts | 32° |
| 2026-05-05 14:11 | 34.85464 | 140.51611 | 21941 ft | 482 kts | 33° |
| 2026-05-05 14:12 | 34.88139 | 140.54040 | 21347 ft | 478 kts | 33° |
| 2026-05-05 14:12 | 34.90778 | 140.56441 | 20704 ft | 473 kts | 34° |
| 2026-05-05 14:12 | 34.93381 | 140.58809 | 20119 ft | 462 kts | 34° |
| 2026-05-05 14:12 | 34.95914 | 140.61114 | 19541 ft | 451 kts | 35° |
| 2026-05-05 14:13 | 34.98386 | 140.63368 | 18957 ft | 441 kts | 35° |
| 2026-05-05 14:13 | 35.00832 | 140.65596 | 18385 ft | 432 kts | 36° |
| 2026-05-05 14:13 | 35.03221 | 140.67775 | 17805 ft | 429 kts | 37° |
| 2026-05-05 14:13 | 35.05635 | 140.69902 | 17195 ft | 425 kts | 32° |
| 2026-05-05 14:14 | 35.08237 | 140.71538 | 16809 ft | 415 kts | 21° |
| 2026-05-05 14:14 | 35.10929 | 140.72542 | 16788 ft | 396 kts | 11° |
| 2026-05-05 14:14 | 35.13605 | 140.72975 | 16785 ft | 396 kts | 1° |
| 2026-05-05 14:14 | 35.16395 | 140.72876 | 16778 ft | 406 kts | 352° |
| 2026-05-05 14:15 | 35.19209 | 140.72386 | 16530 ft | 408 kts | 350° |
| 2026-05-05 14:15 | 35.22015 | 140.71851 | 16020 ft | 407 kts | 350° |
| 2026-05-05 14:15 | 35.24777 | 140.71321 | 15450 ft | 404 kts | 350° |
| 2026-05-05 14:15 | 35.27580 | 140.70784 | 14870 ft | 401 kts | 350° |
| 2026-05-05 14:16 | 35.30321 | 140.70258 | 14300 ft | 398 kts | 350° |
| 2026-05-05 14:16 | 35.33056 | 140.69731 | 13632 ft | 398 kts | 350° |
| 2026-05-05 14:16 | 35.35754 | 140.69212 | 12961 ft | 397 kts | 350° |
| 2026-05-05 14:16 | 35.38471 | 140.68690 | 12360 ft | 395 kts | 350° |
| 2026-05-05 14:17 | 35.41209 | 140.68162 | 11773 ft | 392 kts | 350° |
| 2026-05-05 14:17 | 35.43890 | 140.67647 | 11207 ft | 388 kts | 350° |
| 2026-05-05 14:17 | 35.46507 | 140.67142 | 10800 ft | 380 kts | 350° |
| 2026-05-05 14:17 | 35.49099 | 140.66643 | 10721 ft | 363 kts | 350° |
| 2026-05-05 14:18 | 35.51524 | 140.66176 | 10625 ft | 349 kts | 350° |
| 2026-05-05 14:18 | 35.53884 | 140.65721 | 10467 ft | 337 kts | 350° |
| 2026-05-05 14:18 | 35.56153 | 140.65283 | 10148 ft | 321 kts | 350° |
| 2026-05-05 14:18 | 35.58299 | 140.64870 | 10017 ft | 304 kts | 349° |
| 2026-05-05 14:19 | 35.60386 | 140.64467 | 9629 ft | 300 kts | 349° |
| 2026-05-05 14:19 | 35.62442 | 140.64084 | 9235 ft | 298 kts | 353° |
| 2026-05-05 14:19 | 35.64490 | 140.64352 | 8875 ft | 297 kts | 19° |
| 2026-05-05 14:19 | 35.66256 | 140.65643 | 8562 ft | 294 kts | 40° |
| 2026-05-05 14:20 | 35.67765 | 140.67274 | 8289 ft | 291 kts | 42° |
| 2026-05-05 14:20 | 35.69264 | 140.68939 | 8029 ft | 287 kts | 42° |
| 2026-05-05 14:20 | 35.70730 | 140.70567 | 7781 ft | 282 kts | 42° |
| 2026-05-05 14:20 | 35.72177 | 140.72177 | 7538 ft | 278 kts | 42° |
| 2026-05-05 14:21 | 35.73605 | 140.73770 | 7278 ft | 274 kts | 42° |
| 2026-05-05 14:21 | 35.75000 | 140.75334 | 7054 ft | 267 kts | 42° |
| 2026-05-05 14:21 | 35.76359 | 140.76868 | 6865 ft | 259 kts | 42° |
| 2026-05-05 14:21 | 35.77668 | 140.78348 | 6670 ft | 255 kts | 42° |
| 2026-05-05 14:22 | 35.79053 | 140.79671 | 6455 ft | 249 kts | 23° |
| 2026-05-05 14:22 | 35.80708 | 140.80075 | 6240 ft | 245 kts | 352° |
| 2026-05-05 14:22 | 35.82309 | 140.79385 | 6013 ft | 242 kts | 321° |
| 2026-05-05 14:22 | 35.83368 | 140.77834 | 5798 ft | 238 kts | 295° |
| 2026-05-05 14:23 | 35.84074 | 140.75984 | 5671 ft | 236 kts | 292° |
| 2026-05-05 14:23 | 35.84732 | 140.74153 | 5667 ft | 237 kts | 291° |
| 2026-05-05 14:23 | 35.85386 | 140.72276 | 5671 ft | 237 kts | 291° |
| 2026-05-05 14:23 | 35.86055 | 140.70346 | 5680 ft | 253 kts | 291° |
| 2026-05-05 14:24 | 35.86753 | 140.68338 | 5681 ft | 257 kts | 291° |
| 2026-05-05 14:24 | 35.87460 | 140.66301 | 5686 ft | 258 kts | 291° |
| 2026-05-05 14:24 | 35.88170 | 140.64259 | 5703 ft | 258 kts | 291° |
| 2026-05-05 14:24 | 35.88870 | 140.62241 | 5707 ft | 257 kts | 291° |
| 2026-05-05 14:25 | 35.89580 | 140.60193 | 5706 ft | 257 kts | 291° |
| 2026-05-05 14:25 | 35.90282 | 140.58168 | 5707 ft | 256 kts | 291° |
| 2026-05-05 14:25 | 35.90980 | 140.56152 | 5717 ft | 256 kts | 291° |
| 2026-05-05 14:25 | 35.91679 | 140.54134 | 5709 ft | 257 kts | 291° |
| 2026-05-05 14:26 | 35.92375 | 140.52119 | 5708 ft | 257 kts | 291° |
| 2026-05-05 14:26 | 35.93078 | 140.50089 | 5405 ft | 256 kts | 291° |
| 2026-05-05 14:26 | 35.93777 | 140.48065 | 4939 ft | 258 kts | 290° |
| 2026-05-05 14:26 | 35.94472 | 140.46053 | 4597 ft | 257 kts | 290° |
| 2026-05-05 14:27 | 35.95173 | 140.44019 | 4261 ft | 258 kts | 290° |
| 2026-05-05 14:27 | 35.95884 | 140.41983 | 3949 ft | 257 kts | 293° |
| 2026-05-05 14:27 | 35.96817 | 140.40164 | 3856 ft | 251 kts | 303° |
| 2026-05-05 14:27 | 35.97864 | 140.38429 | 3783 ft | 248 kts | 303° |
| 2026-05-05 14:28 | 35.98893 | 140.36736 | 3673 ft | 247 kts | 303° |
| 2026-05-05 14:28 | 35.99894 | 140.35056 | 3564 ft | 238 kts | 298° |
| 2026-05-05 14:28 | 36.00405 | 140.33195 | 3431 ft | 221 kts | 270° |
| 2026-05-05 14:28 | 36.00195 | 140.31401 | 3323 ft | 206 kts | 244° |
| 2026-05-05 14:29 | 35.99564 | 140.29890 | 3239 ft | 193 kts | 234° |
| 2026-05-05 14:29 | 35.98837 | 140.28538 | 3155 ft | 183 kts | 231° |
| 2026-05-05 14:29 | 35.98080 | 140.27312 | 3071 ft | 177 kts | 219° |
| 2026-05-05 14:29 | 35.97015 | 140.26634 | 2980 ft | 172 kts | 187° |
| 2026-05-05 14:30 | 35.95855 | 140.26827 | 2938 ft | 168 kts | 160° |
| 2026-05-05 14:30 | 35.94803 | 140.27472 | 2946 ft | 171 kts | 153° |
| 2026-05-05 14:30 | 35.93784 | 140.28247 | 2952 ft | 172 kts | 152° |
| 2026-05-05 14:30 | 35.92765 | 140.28993 | 2923 ft | 168 kts | 153° |
| 2026-05-05 14:31 | 35.91752 | 140.29717 | 2698 ft | 166 kts | 153° |
| 2026-05-05 14:31 | 35.90771 | 140.30421 | 2492 ft | 161 kts | 153° |
| 2026-05-05 14:31 | 35.89809 | 140.31116 | 2285 ft | 159 kts | 152° |
| 2026-05-05 14:31 | 35.88858 | 140.31802 | 2081 ft | 159 kts | 152° |
| 2026-05-05 14:32 | 35.87906 | 140.32491 | 1868 ft | 155 kts | 152° |
| 2026-05-05 14:32 | 35.87007 | 140.33139 | 1660 ft | 149 kts | 152° |
| 2026-05-05 14:32 | 35.86115 | 140.33783 | 1468 ft | 145 kts | 152° |
| 2026-05-05 14:32 | 35.85283 | 140.34383 | 1276 ft | 135 kts | 152° |
| 2026-05-05 14:33 | 35.84488 | 140.34955 | 1101 ft | 131 kts | 152° |
| 2026-05-05 14:33 | 35.83698 | 140.35525 | 913 ft | 131 kts | 152° |
| 2026-05-05 14:33 | 35.82951 | 140.36066 | 740 ft | 133 kts | 151° |
| 2026-05-05 14:33 | 35.82247 | 140.36572 | 583 ft | 134 kts | 151° |
| 2026-05-05 14:34 | 35.81441 | 140.37155 | 391 ft | 135 kts | 150° |
| 2026-05-05 14:34 | 35.80616 | 140.37746 | 206 ft | 135 kts | 151° |
| 2026-05-05 14:34 | 35.79831 | 140.38294 | 146 ft | 114 kts | 149° |
| 2026-05-05 14:34 | 35.79298 | 140.38690 | 146 ft | 73 kts | 149° |
| 2026-05-05 14:35 | 35.78952 | 140.38943 | 146 ft | 43 kts | 150° |
| 2026-05-05 14:35 | 35.78707 | 140.39067 | 146 ft | 31 kts | 172° |
| 2026-05-05 14:35 | 35.78527 | 140.39094 | 146 ft | 23 kts | 167° |
| 2026-05-05 14:35 | 35.78370 | 140.39140 | 146 ft | 22 kts | 166° |
| 2026-05-05 14:36 | 35.78234 | 140.39178 | 146 ft | 17 kts | 167° |
| 2026-05-05 14:36 | 35.78140 | 140.39172 | 146 ft | 11 kts | 223° |
| 2026-05-05 14:36 | 35.78083 | 140.39121 | 146 ft | 10 kts | 178° |
| 2026-05-05 14:36 | 35.78009 | 140.39148 | 146 ft | 12 kts | 146° |
| 2026-05-05 14:37 | 35.77948 | 140.39243 | 146 ft | 15 kts | 116° |
| 2026-05-05 14:37 | 35.77894 | 140.39375 | 146 ft | 19 kts | 117° |
| 2026-05-05 14:37 | 35.77808 | 140.39508 | 146 ft | 20 kts | 145° |
| 2026-05-05 14:37 | 35.77679 | 140.39604 | 146 ft | 22 kts | 149° |
| 2026-05-05 14:38 | 35.77536 | 140.39706 | 146 ft | 24 kts | 150° |
| 2026-05-05 14:38 | 35.77385 | 140.39815 | 146 ft | 25 kts | 149° |
| 2026-05-05 14:38 | 35.77236 | 140.39922 | 146 ft | 22 kts | 149° |
| 2026-05-05 14:38 | 35.77111 | 140.39998 | 146 ft | 17 kts | 170° |
| 2026-05-05 14:39 | 35.76997 | 140.39955 | 146 ft | 16 kts | 205° |
| 2026-05-05 14:39 | 35.76940 | 140.39922 | 146 ft | 0 kts | 205° |
| 2026-05-05 14:40 | 35.76923 | 140.39912 | 146 ft | 6 kts | 204° |
| 2026-05-05 14:41 | 35.76868 | 140.39871 | 146 ft | 11 kts | 233° |
| 2026-05-05 14:41 | 35.76885 | 140.39755 | 146 ft | 17 kts | 292° |
| 2026-05-05 14:41 | 35.76914 | 140.39627 | 146 ft | 14 kts | 264° |
| 2026-05-05 14:41 | 35.76878 | 140.39519 | 146 ft | 14 kts | 244° |
| 2026-05-05 14:42 | 35.76841 | 140.39400 | 146 ft | 13 kts | 229° |
| 2026-05-05 14:42 | 35.76761 | 140.39342 | 146 ft | 13 kts | 205° |
| 2026-05-05 14:42 | 35.76672 | 140.39291 | 146 ft | 15 kts | 205° |
| 2026-05-05 14:42 | 35.76561 | 140.39227 | 146 ft | 18 kts | 203° |
| 2026-05-05 14:43 | 35.76446 | 140.39166 | 146 ft | 17 kts | 204° |
| 2026-05-05 14:43 | 35.76340 | 140.39107 | 146 ft | 16 kts | 204° |
| 2026-05-05 14:43 | 35.76240 | 140.39050 | 146 ft | 15 kts | 204° |
| 2026-05-05 14:43 | 35.76181 | 140.39018 | 146 ft | 3 kts | 203° |
| 2026-05-05 14:44 | 35.76157 | 140.39006 | 146 ft | 2 kts | 204° |
| 2026-05-05 14:44 | 35.76142 | 140.38997 | 146 ft | 1 kts | 203° |
| 2026-05-05 14:44 | 35.76132 | 140.38992 | 146 ft | 0 kts | 203° |
| 2026-05-05 14:44 | 35.76121 | 140.38986 | 146 ft | 4 kts | 204° |
| 2026-05-05 14:45 | 35.76070 | 140.38957 | 146 ft | 11 kts | 204° |
| 2026-05-05 14:45 | 35.75976 | 140.38905 | 146 ft | 17 kts | 204° |
| 2026-05-05 14:45 | 35.75848 | 140.38834 | 146 ft | 21 kts | 204° |
| 2026-05-05 14:45 | 35.75729 | 140.38748 | 146 ft | 19 kts | 227° |
| 2026-05-05 14:46 | 35.75696 | 140.38608 | 146 ft | 17 kts | 298° |
| 2026-05-05 14:46 | 35.75795 | 140.38516 | 146 ft | 19 kts | 328° |
| 2026-05-05 14:46 | 35.75922 | 140.38426 | 146 ft | 21 kts | 329° |
| 2026-05-05 14:46 | 35.76047 | 140.38336 | 146 ft | 19 kts | 328° |
| 2026-05-05 14:47 | 35.76126 | 140.38278 | 146 ft | 5 kts | 334° |
| 2026-05-05 14:47 | 35.76153 | 140.38292 | 146 ft | 3 kts | 54° |
| 2026-05-05 14:47 | 35.76168 | 140.38324 | 146 ft | 4 kts | 59° |
| 2026-05-05 14:47 | 35.76182 | 140.38354 | 146 ft | 3 kts | 59° |
| 2026-05-05 14:48 | 35.76183 | 140.38354 | 146 ft | 0 kts | 59° |